sensor_id;sensor_type;location;lat;lon;timestamp;pressure;altitude;pressure_sealevel;temperature;humidity
9676;BME280;4876;42.656;23.292;2023-01-28T00:00:56;93670.25;;;0.17;90.57
9676;BME280;4876;42.656;23.292;2023-01-28T00:03:22;93678.81;;;0.13;90.18
9676;BME280;4876;42.656;23.292;2023-01-28T00:05:50;93677.22;;;0.12;89.81
9676;BME280;4876;42.656;23.292;2023-01-28T00:08:18;93690.16;;;0.22;89.74
9676;BME280;4876;42.656;23.292;2023-01-28T00:10:44;93683.69;;;0.04;89.68
9676;BME280;4876;42.656;23.292;2023-01-28T00:13:12;93694.81;;;0.10;89.75
9676;BME280;4876;42.656;23.292;2023-01-28T00:15:41;93691.19;;;0.06;89.44
9676;BME280;4876;42.656;23.292;2023-01-28T00:18:08;93701.56;;;0.01;89.58
9676;BME280;4876;42.656;23.292;2023-01-28T00:20:35;93696.88;;;-0.03;89.89
9676;BME280;4876;42.656;23.292;2023-01-28T00:23:02;93703.59;;;-0.07;89.97
9676;BME280;4876;42.656;23.292;2023-01-28T00:25:29;93701.53;;;-0.15;90.14
9676;BME280;4876;42.656;23.292;2023-01-28T00:27:56;93703.88;;;-0.08;90.68
9676;BME280;4876;42.656;23.292;2023-01-28T00:30:23;93706.19;;;-0.02;90.32
9676;BME280;4876;42.656;23.292;2023-01-28T00:32:52;93709.03;;;0.02;90.74
9676;BME280;4876;42.656;23.292;2023-01-28T00:35:19;93708.22;;;0.37;90.24
9676;BME280;4876;42.656;23.292;2023-01-28T00:37:46;93715.47;;;0.30;89.55
9676;BME280;4876;42.656;23.292;2023-01-28T00:40:13;93707.75;;;0.20;88.71
9676;BME280;4876;42.656;23.292;2023-01-28T00:42:39;93721.41;;;0.46;88.33
9676;BME280;4876;42.656;23.292;2023-01-28T00:45:07;93713.41;;;0.32;87.94
9676;BME280;4876;42.656;23.292;2023-01-28T00:47:34;93714.44;;;0.16;88.26
9676;BME280;4876;42.656;23.292;2023-01-28T00:50:03;93719.13;;;0.09;88.49
9676;BME280;4876;42.656;23.292;2023-01-28T00:52:30;93715.22;;;0.16;88.68
9676;BME280;4876;42.656;23.292;2023-01-28T00:54:57;93717.31;;;0.14;88.81
9676;BME280;4876;42.656;23.292;2023-01-28T00:57:24;93712.91;;;0.15;89.08
9676;BME280;4876;42.656;23.292;2023-01-28T00:59:50;93726.34;;;0.17;88.89
9676;BME280;4876;42.656;23.292;2023-01-28T01:02:17;93720.16;;;0.03;88.81
9676;BME280;4876;42.656;23.292;2023-01-28T01:04:44;93717.28;;;-0.01;89.21
9676;BME280;4876;42.656;23.292;2023-01-28T01:07:21;93720.66;;;0.15;89.72
9676;BME280;4876;42.656;23.292;2023-01-28T01:09:59;93720.41;;;0.06;89.00
9676;BME280;4876;42.656;23.292;2023-01-28T01:12:27;93716.50;;;0.24;88.81
9676;BME280;4876;42.656;23.292;2023-01-28T01:14:53;93719.13;;;0.09;88.22
9676;BME280;4876;42.656;23.292;2023-01-28T01:17:20;93722.72;;;0.03;89.14
9676;BME280;4876;42.656;23.292;2023-01-28T01:19:47;93722.75;;;0.13;89.52
9676;BME280;4876;42.656;23.292;2023-01-28T01:22:14;93725.06;;;0.09;89.17
9676;BME280;4876;42.656;23.292;2023-01-28T01:24:42;93727.38;;;0.11;89.04
9676;BME280;4876;42.656;23.292;2023-01-28T01:27:09;93726.34;;;0.17;89.65
9676;BME280;4876;42.656;23.292;2023-01-28T01:29:35;93725.31;;;0.13;89.14
9676;BME280;4876;42.656;23.292;2023-01-28T01:32:03;93728.94;;;0.02;89.36
9676;BME280;4876;42.656;23.292;2023-01-28T01:34:30;93736.69;;;0.02;89.84
9676;BME280;4876;42.656;23.292;2023-01-28T01:36:57;93727.63;;;-0.01;89.63
9676;BME280;4876;42.656;23.292;2023-01-28T01:39:24;93734.63;;;0.09;89.85
9676;BME280;4876;42.656;23.292;2023-01-28T01:41:52;93738.25;;;0.03;89.78
9676;BME280;4876;42.656;23.292;2023-01-28T01:44:56;93734.63;;;0.19;89.64
9676;BME280;4876;42.656;23.292;2023-01-28T01:47:25;93738.75;;;-0.06;89.65
9676;BME280;4876;42.656;23.292;2023-01-28T01:49:54;93734.38;;;-0.10;90.28
9676;BME280;4876;42.656;23.292;2023-01-28T01:52:24;93726.34;;;-0.09;90.33
9676;BME280;4876;42.656;23.292;2023-01-28T01:54:56;93733.84;;;0.03;90.31
9676;BME280;4876;42.656;23.292;2023-01-28T01:57:30;93734.88;;;-0.18;90.05
9676;BME280;4876;42.656;23.292;2023-01-28T01:59:59;93742.34;;;-0.27;91.00
9676;BME280;4876;42.656;23.292;2023-01-28T02:02:34;93740.03;;;-0.29;91.30
9676;BME280;4876;42.656;23.292;2023-01-28T02:05:03;93735.38;;;-0.21;91.35
9676;BME280;4876;42.656;23.292;2023-01-28T02:07:29;93739.03;;;-0.12;92.09
9676;BME280;4876;42.656;23.292;2023-01-28T02:09:56;93742.63;;;-0.13;91.95
9676;BME280;4876;42.656;23.292;2023-01-28T02:12:27;93757.09;;;-0.17;91.30
9676;BME280;4876;42.656;23.292;2023-01-28T02:14:57;93746.50;;;-0.11;90.73
9676;BME280;4876;42.656;23.292;2023-01-28T02:17:25;93751.66;;;-0.16;90.87
9676;BME280;4876;42.656;23.292;2023-01-28T02:19:56;93745.22;;;-0.08;90.91
9676;BME280;4876;42.656;23.292;2023-01-28T02:28:42;93747.00;;;-0.24;89.59
9676;BME280;4876;42.656;23.292;2023-01-28T02:31:14;93754.00;;;0.01;90.32
9676;BME280;4876;42.656;23.292;2023-01-28T02:33:50;93755.53;;;-0.13;89.27
9676;BME280;4876;42.656;23.292;2023-01-28T02:36:25;93749.88;;;-0.05;89.39
9676;BME280;4876;42.656;23.292;2023-01-28T02:38:55;93755.06;;;0.00;89.45
9676;BME280;4876;42.656;23.292;2023-01-28T02:41:28;93758.63;;;-0.16;89.17
9676;BME280;4876;42.656;23.292;2023-01-28T02:44:00;93753.97;;;-0.19;89.37
9676;BME280;4876;42.656;23.292;2023-01-28T02:46:34;93752.97;;;0.02;89.59
9676;BME280;4876;42.656;23.292;2023-01-28T02:49:21;93755.81;;;0.01;89.02
9676;BME280;4876;42.656;23.292;2023-01-28T02:52:18;93753.47;;;-0.01;89.34
9676;BME280;4876;42.656;23.292;2023-01-28T02:55:14;93755.78;;;-0.15;89.58
9676;BME280;4876;42.656;23.292;2023-01-28T02:57:49;93737.97;;;-0.37;90.00
9676;BME280;4876;42.656;23.292;2023-01-28T03:00:25;93748.56;;;-0.03;90.29
9676;BME280;4876;42.656;23.292;2023-01-28T03:02:58;93758.41;;;0.01;89.65
9676;BME280;4876;42.656;23.292;2023-01-28T03:05:30;93760.47;;;-0.02;88.95
9676;BME280;4876;42.656;23.292;2023-01-28T03:07:58;93756.34;;;0.03;88.87
9676;BME280;4876;42.656;23.292;2023-01-28T03:10:26;93757.38;;;-0.04;88.72
9676;BME280;4876;42.656;23.292;2023-01-28T03:12:56;93754.50;;;-0.02;88.45
9676;BME280;4876;42.656;23.292;2023-01-28T03:15:45;93766.16;;;-0.05;89.51
9676;BME280;4876;42.656;23.292;2023-01-28T03:18:35;93761.75;;;-0.04;89.46
9676;BME280;4876;42.656;23.292;2023-01-28T03:21:24;93759.69;;;0.03;88.81
9676;BME280;4876;42.656;23.292;2023-01-28T03:24:13;93757.38;;;0.02;88.18
9676;BME280;4876;42.656;23.292;2023-01-28T03:27:04;93757.63;;;-0.05;88.77
9676;BME280;4876;42.656;23.292;2023-01-28T03:29:50;93756.34;;;0.03;88.66
9676;BME280;4876;42.656;23.292;2023-01-28T03:32:39;93768.47;;;-0.18;88.48
9676;BME280;4876;42.656;23.292;2023-01-28T03:35:28;93766.91;;;-0.24;89.32
9676;BME280;4876;42.656;23.292;2023-01-28T03:38:13;93760.94;;;-0.35;88.72
9676;BME280;4876;42.656;23.292;2023-01-28T03:40:49;93767.94;;;-0.31;89.75
9676;BME280;4876;42.656;23.292;2023-01-28T03:43:16;93776.75;;;-0.11;88.74
9676;BME280;4876;42.656;23.292;2023-01-28T03:45:43;93774.88;;;-0.26;88.79
9676;BME280;4876;42.656;23.292;2023-01-28T03:48:17;93767.91;;;-0.36;88.36
9676;BME280;4876;42.656;23.292;2023-01-28T03:50:43;93775.16;;;-0.28;88.91
9676;BME280;4876;42.656;23.292;2023-01-28T03:53:10;93780.06;;;-0.36;89.16
9676;BME280;4876;42.656;23.292;2023-01-28T03:55:38;93774.88;;;-0.26;89.30
9676;BME280;4876;42.656;23.292;2023-01-28T03:58:05;93775.94;;;-0.22;88.68
9676;BME280;4876;42.656;23.292;2023-01-28T04:00:32;93781.63;;;-0.15;88.32
9676;BME280;4876;42.656;23.292;2023-01-28T04:02:59;93785.22;;;-0.26;88.05
9676;BME280;4876;42.656;23.292;2023-01-28T04:05:27;93786.47;;;-0.44;88.08
9676;BME280;4876;42.656;23.292;2023-01-28T04:07:54;93781.56;;;-0.45;88.41
9676;BME280;4876;42.656;23.292;2023-01-28T04:10:21;93784.72;;;-0.28;88.63
9676;BME280;4876;42.656;23.292;2023-01-28T04:12:48;93783.41;;;-0.25;88.34
9676;BME280;4876;42.656;23.292;2023-01-28T04:15:15;93786.47;;;-0.49;87.81
9676;BME280;4876;42.656;23.292;2023-01-28T04:17:45;93780.28;;;-0.48;88.62
9676;BME280;4876;42.656;23.292;2023-01-28T04:20:13;93785.22;;;-0.36;88.62
9676;BME280;4876;42.656;23.292;2023-01-28T04:22:41;93795.31;;;-0.30;88.09
9676;BME280;4876;42.656;23.292;2023-01-28T04:25:09;93775.13;;;-0.43;88.68
9676;BME280;4876;42.656;23.292;2023-01-28T04:27:35;93799.97;;;-0.16;88.50
9676;BME280;4876;42.656;23.292;2023-01-28T04:30:02;93802.75;;;-0.38;88.99
9676;BME280;4876;42.656;23.292;2023-01-28T04:32:29;93806.94;;;-0.27;89.87
9676;BME280;4876;42.656;23.292;2023-01-28T04:34:56;93796.09;;;-0.29;89.94
9676;BME280;4876;42.656;23.292;2023-01-28T04:37:22;93810.53;;;-0.33;90.28
9676;BME280;4876;42.656;23.292;2023-01-28T04:39:51;93808.66;;;-0.53;90.60
9676;BME280;4876;42.656;23.292;2023-01-28T04:42:17;93811.06;;;-0.36;91.48
9676;BME280;4876;42.656;23.292;2023-01-28T04:44:44;93816.97;;;-0.41;90.46
9676;BME280;4876;42.656;23.292;2023-01-28T04:47:11;93826.75;;;-0.48;91.38
9676;BME280;4876;42.656;23.292;2023-01-28T04:49:37;93826.53;;;-0.41;90.94
9676;BME280;4876;42.656;23.292;2023-01-28T04:52:04;93825.00;;;-0.32;90.84
9676;BME280;4876;42.656;23.292;2023-01-28T04:54:31;93825.44;;;-0.50;91.13
9676;BME280;4876;42.656;23.292;2023-01-28T04:56:59;93829.59;;;-0.55;91.40
9676;BME280;4876;42.656;23.292;2023-01-28T04:59:26;93832.47;;;-0.41;91.63
9676;BME280;4876;42.656;23.292;2023-01-28T05:01:53;93833.97;;;-0.50;91.27
9676;BME280;4876;42.656;23.292;2023-01-28T05:04:20;93832.63;;;-0.63;91.53
9676;BME280;4876;42.656;23.292;2023-01-28T05:06:46;93836.28;;;-0.53;91.38
9676;BME280;4876;42.656;23.292;2023-01-28T05:09:13;93839.38;;;-0.51;91.57
9676;BME280;4876;42.656;23.292;2023-01-28T05:11:40;93839.09;;;-0.65;91.05
9676;BME280;4876;42.656;23.292;2023-01-28T05:14:08;93849.19;;;-0.59;92.13
9676;BME280;4876;42.656;23.292;2023-01-28T05:16:35;93847.41;;;-0.53;91.83
9676;BME280;4876;42.656;23.292;2023-01-28T05:19:02;93851.09;;;-0.34;91.40
9676;BME280;4876;42.656;23.292;2023-01-28T05:21:29;93851.38;;;-0.20;90.13
9676;BME280;4876;42.656;23.292;2023-01-28T05:23:55;93859.66;;;-0.18;88.75
9676;BME280;4876;42.656;23.292;2023-01-28T05:26:22;93858.84;;;-0.29;88.16
9676;BME280;4876;42.656;23.292;2023-01-28T05:28:49;93853.94;;;-0.35;89.03
9676;BME280;4876;42.656;23.292;2023-01-28T05:31:18;93857.84;;;-0.22;89.09
9676;BME280;4876;42.656;23.292;2023-01-28T05:33:44;93859.13;;;-0.30;88.45
9676;BME280;4876;42.656;23.292;2023-01-28T05:36:11;93864.28;;;-0.25;88.62
9676;BME280;4876;42.656;23.292;2023-01-28T05:38:38;93867.19;;;-0.01;87.97
9676;BME280;4876;42.656;23.292;2023-01-28T05:41:05;93873.09;;;-0.16;86.74
9676;BME280;4876;42.656;23.292;2023-01-28T05:43:31;93875.41;;;-0.24;87.79
9676;BME280;4876;42.656;23.292;2023-01-28T05:45:58;93871.50;;;-0.27;87.40
9676;BME280;4876;42.656;23.292;2023-01-28T05:48:26;93871.50;;;-0.27;87.76
9676;BME280;4876;42.656;23.292;2023-01-28T05:50:53;93875.56;;;-0.46;88.35
9676;BME280;4876;42.656;23.292;2023-01-28T05:53:20;93871.16;;;-0.51;88.23
9676;BME280;4876;42.656;23.292;2023-01-28T05:55:47;93875.63;;;-0.31;88.57
9676;BME280;4876;42.656;23.292;2023-01-28T05:58:15;93861.56;;;-0.61;88.54
9676;BME280;4876;42.656;23.292;2023-01-28T06:00:41;93880.53;;;-0.35;88.22
9676;BME280;4876;42.656;23.292;2023-01-28T06:03:08;93875.19;;;-0.08;98.96
9676;BME280;4876;42.656;23.292;2023-01-28T06:05:36;93875.72;;;-0.01;96.31
9676;BME280;4876;42.656;23.292;2023-01-28T06:08:04;93890.69;;;-0.18;90.17
9676;BME280;4876;42.656;23.292;2023-01-28T06:10:30;93894.25;;;-0.19;87.92
9676;BME280;4876;42.656;23.292;2023-01-28T06:12:57;93898.94;;;-0.16;87.68
9676;BME280;4876;42.656;23.292;2023-01-28T06:15:24;93896.38;;;-0.11;87.47
9676;BME280;4876;42.656;23.292;2023-01-28T06:17:51;93899.41;;;-0.29;86.74
9676;BME280;4876;42.656;23.292;2023-01-28T06:20:18;93905.13;;;-0.22;87.66
9676;BME280;4876;42.656;23.292;2023-01-28T06:22:49;93904.34;;;-0.22;87.70
9676;BME280;4876;42.656;23.292;2023-01-28T06:25:16;93920.16;;;-0.09;88.02
9676;BME280;4876;42.656;23.292;2023-01-28T06:27:42;93914.97;;;-0.14;87.57
9676;BME280;4876;42.656;23.292;2023-01-28T06:30:10;93924.81;;;-0.06;87.21
9676;BME280;4876;42.656;23.292;2023-01-28T06:32:37;93926.84;;;-0.18;87.05
9676;BME280;4876;42.656;23.292;2023-01-28T06:35:04;93928.16;;;-0.10;86.57
9676;BME280;4876;42.656;23.292;2023-01-28T06:37:32;93930.78;;;-0.05;86.75
9676;BME280;4876;42.656;23.292;2023-01-28T06:40:00;93926.59;;;-0.16;87.58
9676;BME280;4876;42.656;23.292;2023-01-28T06:42:27;93939.75;;;-0.13;86.98
9676;BME280;4876;42.656;23.292;2023-01-28T06:44:54;93941.34;;;-0.12;87.21
9676;BME280;4876;42.656;23.292;2023-01-28T06:47:20;93940.34;;;-0.06;87.77
9676;BME280;4876;42.656;23.292;2023-01-28T06:49:47;93943.34;;;-0.19;87.50
9676;BME280;4876;42.656;23.292;2023-01-28T06:52:14;93948.25;;;-0.22;87.31
9676;BME280;4876;42.656;23.292;2023-01-28T06:54:41;93957.94;;;0.03;87.38
9676;BME280;4876;42.656;23.292;2023-01-28T06:57:09;93953.47;;;-0.07;86.82
9676;BME280;4876;42.656;23.292;2023-01-28T06:59:35;93963.63;;;0.05;86.60
9676;BME280;4876;42.656;23.292;2023-01-28T07:02:02;93963.09;;;0.03;85.74
9676;BME280;4876;42.656;23.292;2023-01-28T07:04:30;93968.13;;;-0.28;86.02
9676;BME280;4876;42.656;23.292;2023-01-28T07:06:57;93968.41;;;-0.24;87.03
9676;BME280;4876;42.656;23.292;2023-01-28T07:09:23;93971.00;;;-0.19;87.16
9676;BME280;4876;42.656;23.292;2023-01-28T07:11:50;93973.91;;;-0.11;87.23
9676;BME280;4876;42.656;23.292;2023-01-28T07:14:18;93978.50;;;-0.23;87.08
9676;BME280;4876;42.656;23.292;2023-01-28T07:16:45;93981.53;;;-0.36;87.41
9676;BME280;4876;42.656;23.292;2023-01-28T07:19:12;93988.94;;;-0.45;88.53
9676;BME280;4876;42.656;23.292;2023-01-28T07:21:38;93987.22;;;-0.34;88.80
9676;BME280;4876;42.656;23.292;2023-01-28T07:24:05;93990.88;;;-0.25;88.45
9676;BME280;4876;42.656;23.292;2023-01-28T07:26:32;93990.44;;;-0.07;88.51
9676;BME280;4876;42.656;23.292;2023-01-28T07:28:59;93996.56;;;-0.23;88.02
9676;BME280;4876;42.656;23.292;2023-01-28T07:31:27;93996.03;;;-0.30;88.31
9676;BME280;4876;42.656;23.292;2023-01-28T07:33:54;93999.63;;;-0.31;88.54
9676;BME280;4876;42.656;23.292;2023-01-28T07:36:21;94002.22;;;-0.26;87.74
9676;BME280;4876;42.656;23.292;2023-01-28T07:38:47;94001.72;;;-0.28;87.47
9676;BME280;4876;42.656;23.292;2023-01-28T07:41:14;94004.94;;;-0.01;87.73
9676;BME280;4876;42.656;23.292;2023-01-28T07:43:41;94004.44;;;-0.03;87.50
9676;BME280;4876;42.656;23.292;2023-01-28T07:46:08;94010.41;;;0.03;86.50
9676;BME280;4876;42.656;23.292;2023-01-28T07:48:36;94012.22;;;0.08;86.56
9676;BME280;4876;42.656;23.292;2023-01-28T07:51:03;94009.88;;;0.06;85.91
9676;BME280;4876;42.656;23.292;2023-01-28T07:53:30;94017.00;;;0.31;85.74
9676;BME280;4876;42.656;23.292;2023-01-28T07:55:59;94014.06;;;0.17;84.75
9676;BME280;4876;42.656;23.292;2023-01-28T07:58:27;94022.56;;;0.08;84.92
9676;BME280;4876;42.656;23.292;2023-01-28T08:00:56;94028.31;;;0.20;85.32
9676;BME280;4876;42.656;23.292;2023-01-28T08:03:23;94019.00;;;0.24;85.33
9676;BME280;4876;42.656;23.292;2023-01-28T08:05:53;93938.66;;;-0.32;84.36
9676;BME280;4876;42.656;23.292;2023-01-28T08:08:21;94026.22;;;0.17;84.09
9676;BME280;4876;42.656;23.292;2023-01-28T08:10:48;94031.94;;;0.19;84.36
9676;BME280;4876;42.656;23.292;2023-01-28T08:13:16;94024.72;;;0.26;84.56
9676;BME280;4876;42.656;23.292;2023-01-28T08:15:43;94020.88;;;0.34;84.27
9676;BME280;4876;42.656;23.292;2023-01-28T08:18:13;94024.25;;;0.49;83.52
9676;BME280;4876;42.656;23.292;2023-01-28T08:20:40;94037.25;;;0.65;83.26
9676;BME280;4876;42.656;23.292;2023-01-28T08:23:12;94034.63;;;0.49;82.94
9676;BME280;4876;42.656;23.292;2023-01-28T08:25:39;94034.84;;;0.33;83.05
9676;BME280;4876;42.656;23.292;2023-01-28T08:28:07;94037.69;;;0.41;83.93
9676;BME280;4876;42.656;23.292;2023-01-28T08:30:35;94041.63;;;0.54;82.83
9676;BME280;4876;42.656;23.292;2023-01-28T08:33:03;94040.34;;;0.57;82.44
9676;BME280;4876;42.656;23.292;2023-01-28T08:35:31;93962.56;;;0.06;82.29
9676;BME280;4876;42.656;23.292;2023-01-28T08:37:59;94034.16;;;0.63;82.35
9676;BME280;4876;42.656;23.292;2023-01-28T08:40:28;94042.47;;;0.85;81.72
9676;BME280;4876;42.656;23.292;2023-01-28T08:42:55;94041.47;;;0.91;81.54
9676;BME280;4876;42.656;23.292;2023-01-28T08:45:24;94040.97;;;1.04;81.69
9676;BME280;4876;42.656;23.292;2023-01-28T08:47:53;94052.88;;;1.16;81.21
9676;BME280;4876;42.656;23.292;2023-01-28T08:50:21;94027.75;;;0.91;80.22
9676;BME280;4876;42.656;23.292;2023-01-28T08:52:54;94039.69;;;1.27;79.88
9676;BME280;4876;42.656;23.292;2023-01-28T08:55:21;94045.59;;;0.87;80.50
9676;BME280;4876;42.656;23.292;2023-01-28T08:57:49;94050.78;;;0.97;80.02
9676;BME280;4876;42.656;23.292;2023-01-28T09:00:16;94044.31;;;0.95;80.52
9676;BME280;4876;42.656;23.292;2023-01-28T09:02:43;94047.16;;;1.03;80.83
9676;BME280;4876;42.656;23.292;2023-01-28T09:05:10;94042.78;;;1.14;79.95
9676;BME280;4876;42.656;23.292;2023-01-28T09:07:37;94049.56;;;1.30;80.14
9676;BME280;4876;42.656;23.292;2023-01-28T09:10:05;94047.47;;;1.27;79.66
9676;BME280;4876;42.656;23.292;2023-01-28T09:12:32;94015.31;;;0.98;79.46
9676;BME280;4876;42.656;23.292;2023-01-28T09:15:00;94046.66;;;1.17;78.91
9676;BME280;4876;42.656;23.292;2023-01-28T09:17:27;94053.41;;;1.23;79.45
9676;BME280;4876;42.656;23.292;2023-01-28T09:19:54;94058.09;;;1.41;79.19
9676;BME280;4876;42.656;23.292;2023-01-28T09:22:21;94049.28;;;1.27;78.71
9676;BME280;4876;42.656;23.292;2023-01-28T09:24:47;94058.28;;;0.89;78.95
9676;BME280;4876;42.656;23.292;2023-01-28T09:27:14;94053.34;;;0.82;79.53
9676;BME280;4876;42.656;23.292;2023-01-28T09:29:41;94045.03;;;0.70;80.44
9676;BME280;4876;42.656;23.292;2023-01-28T09:32:09;94058.25;;;0.78;81.22
9676;BME280;4876;42.656;23.292;2023-01-28T09:34:36;94050.78;;;0.87;81.77
9676;BME280;4876;42.656;23.292;2023-01-28T09:37:03;94051.81;;;0.91;81.64
9676;BME280;4876;42.656;23.292;2023-01-28T09:39:30;94053.88;;;0.89;81.35
9676;BME280;4876;42.656;23.292;2023-01-28T09:42:11;94050.78;;;0.87;81.92
9676;BME280;4876;42.656;23.292;2023-01-28T09:44:51;94058.53;;;0.92;82.12
9676;BME280;4876;42.656;23.292;2023-01-28T09:47:25;94048.69;;;0.79;82.45
9676;BME280;4876;42.656;23.292;2023-01-28T09:49:55;94051.53;;;0.83;81.85
9676;BME280;4876;42.656;23.292;2023-01-28T09:52:33;94049.41;;;0.64;82.33
9676;BME280;4876;42.656;23.292;2023-01-28T09:55:04;94046.06;;;0.64;83.23
9676;BME280;4876;42.656;23.292;2023-01-28T09:57:36;94046.06;;;0.74;82.74
9676;BME280;4876;42.656;23.292;2023-01-28T10:00:11;94051.56;;;0.88;83.03
9676;BME280;4876;42.656;23.292;2023-01-28T10:02:52;94041.41;;;0.66;82.70
9676;BME280;4876;42.656;23.292;2023-01-28T10:05:28;94048.09;;;0.62;83.18
9676;BME280;4876;42.656;23.292;2023-01-28T10:08:07;94039.50;;;0.41;85.28
9676;BME280;4876;42.656;23.292;2023-01-28T10:10:43;94035.63;;;0.38;85.50
9676;BME280;4876;42.656;23.292;2023-01-28T10:13:23;94035.66;;;0.53;85.45
9676;BME280;4876;42.656;23.292;2023-01-28T10:16:07;94035.66;;;0.53;85.50
9676;BME280;4876;42.656;23.292;2023-01-28T10:18:43;94040.34;;;0.57;85.21
9676;BME280;4876;42.656;23.292;2023-01-28T10:21:16;94036.22;;;0.61;85.04
9676;BME280;4876;42.656;23.292;2023-01-28T10:23:53;94032.88;;;0.65;85.24
9676;BME280;4876;42.656;23.292;2023-01-28T10:26:24;94038.03;;;0.65;85.30
9676;BME280;4876;42.656;23.292;2023-01-28T10:28:56;94045.53;;;0.67;84.59
9676;BME280;4876;42.656;23.292;2023-01-28T10:31:30;94037.78;;;0.72;84.32
9676;BME280;4876;42.656;23.292;2023-01-28T10:33:59;94036.72;;;0.58;83.30
9676;BME280;4876;42.656;23.292;2023-01-28T10:36:26;94042.91;;;0.51;84.57
9676;BME280;4876;42.656;23.292;2023-01-28T10:38:53;94036.44;;;0.54;84.42
9676;BME280;4876;42.656;23.292;2023-01-28T10:41:21;94015.97;;;0.42;85.08
9676;BME280;4876;42.656;23.292;2023-01-28T10:43:50;94038.53;;;0.52;85.68
9676;BME280;4876;42.656;23.292;2023-01-28T10:46:20;94037.75;;;0.51;86.08
9676;BME280;4876;42.656;23.292;2023-01-28T10:48:55;94041.34;;;0.56;85.50
9676;BME280;4876;42.656;23.292;2023-01-28T10:51:33;94039.06;;;0.64;85.12
9676;BME280;4876;42.656;23.292;2023-01-28T10:54:00;94038.84;;;0.86;85.31
9676;BME280;4876;42.656;23.292;2023-01-28T10:56:29;94044.34;;;1.00;84.84
9676;BME280;4876;42.656;23.292;2023-01-28T10:58:59;94043.31;;;1.06;84.56
9676;BME280;4876;42.656;23.292;2023-01-28T11:01:40;94049.00;;;1.28;83.85
9676;BME280;4876;42.656;23.292;2023-01-28T11:04:16;94044.63;;;1.44;83.42
9676;BME280;4876;42.656;23.292;2023-01-28T11:06:53;94041.00;;;1.45;82.45
9676;BME280;4876;42.656;23.292;2023-01-28T11:09:23;94044.88;;;1.58;81.65
9676;BME280;4876;42.656;23.292;2023-01-28T11:11:50;94043.59;;;1.50;81.40
9676;BME280;4876;42.656;23.292;2023-01-28T11:14:22;94013.03;;;1.37;81.33
9676;BME280;4876;42.656;23.292;2023-01-28T11:16:50;94041.47;;;1.73;80.81
9676;BME280;4876;42.656;23.292;2023-01-28T11:19:19;94043.56;;;1.76;79.86
9676;BME280;4876;42.656;23.292;2023-01-28T11:21:54;94032.66;;;1.84;79.64
9676;BME280;4876;42.656;23.292;2023-01-28T11:24:24;94036.28;;;1.73;78.68
9676;BME280;4876;42.656;23.292;2023-01-28T11:26:53;94022.28;;;1.74;78.77
9676;BME280;4876;42.656;23.292;2023-01-28T11:29:23;94025.38;;;1.86;78.55
9676;BME280;4876;42.656;23.292;2023-01-28T11:31:52;94026.47;;;1.70;78.03
9676;BME280;4876;42.656;23.292;2023-01-28T11:34:19;94039.97;;;1.51;78.31
9676;BME280;4876;42.656;23.292;2023-01-28T11:36:50;94034.25;;;1.34;78.89
9676;BME280;4876;42.656;23.292;2023-01-28T11:39:22;94033.50;;;1.44;78.27
9676;BME280;4876;42.656;23.292;2023-01-28T11:41:50;94040.47;;;1.33;78.52
9676;BME280;4876;42.656;23.292;2023-01-28T11:44:20;94032.72;;;1.38;78.43
9676;BME280;4876;42.656;23.292;2023-01-28T11:50:06;94022.06;;;1.60;78.43
9676;BME280;4876;42.656;23.292;2023-01-28T11:52:48;94032.19;;;1.56;77.45
9676;BME280;4876;42.656;23.292;2023-01-28T11:55:27;94027.47;;;1.74;77.69
9676;BME280;4876;42.656;23.292;2023-01-28T11:58:13;94020.72;;;1.93;77.84
9676;BME280;4876;42.656;23.292;2023-01-28T12:00:51;94018.09;;;1.98;77.02
9676;BME280;4876;42.656;23.292;2023-01-28T12:03:41;94018.13;;;1.93;76.11
9676;BME280;4876;42.656;23.292;2023-01-28T12:06:41;94020.72;;;1.88;76.14
9676;BME280;4876;42.656;23.292;2023-01-28T12:09:18;94035.00;;;1.75;75.83
9676;BME280;4876;42.656;23.292;2023-01-28T12:12:00;94030.59;;;1.66;76.29
9676;BME280;4876;42.656;23.292;2023-01-28T12:15:01;94035.28;;;1.53;76.38
9676;BME280;4876;42.656;23.292;2023-01-28T12:17:43;94031.66;;;1.70;76.52
9676;BME280;4876;42.656;23.292;2023-01-28T12:20:17;94018.16;;;1.68;76.03
9676;BME280;4876;42.656;23.292;2023-01-28T12:23:10;94031.16;;;1.63;75.95
9676;BME280;4876;42.656;23.292;2023-01-28T12:25:49;93999.78;;;1.59;76.61
9676;BME280;4876;42.656;23.292;2023-01-28T12:28:30;94030.09;;;1.69;76.25
9676;BME280;4876;42.656;23.292;2023-01-28T12:31:12;94036.28;;;1.73;76.60
9676;BME280;4876;42.656;23.292;2023-01-28T12:33:56;94033.22;;;1.55;77.31
9676;BME280;4876;42.656;23.292;2023-01-28T12:36:41;94038.66;;;1.44;77.57
9676;BME280;4876;42.656;23.292;2023-01-28T12:39:19;94032.19;;;1.56;77.59
9676;BME280;4876;42.656;23.292;2023-01-28T12:42:03;94040.72;;;1.52;77.95
9676;BME280;4876;42.656;23.292;2023-01-28T12:44:36;94045.91;;;1.52;77.39
9676;BME280;4876;42.656;23.292;2023-01-28T12:47:09;94044.59;;;1.29;78.40
9676;BME280;4876;42.656;23.292;2023-01-28T12:49:40;94039.44;;;1.14;78.94
9676;BME280;4876;42.656;23.292;2023-01-28T12:52:12;94046.69;;;1.42;78.47
9676;BME280;4876;42.656;23.292;2023-01-28T12:54:51;94055.00;;;1.44;78.19
9676;BME280;4876;42.656;23.292;2023-01-28T12:57:23;94052.91;;;1.46;78.38
9676;BME280;4876;42.656;23.292;2023-01-28T12:59:56;94062.22;;;1.52;78.41
9676;BME280;4876;42.656;23.292;2023-01-28T13:02:31;94057.06;;;1.63;77.77
9676;BME280;4876;42.656;23.292;2023-01-28T13:05:05;94049.78;;;1.70;77.57
9676;BME280;4876;42.656;23.292;2023-01-28T13:07:37;94061.19;;;1.53;77.32
9676;BME280;4876;42.656;23.292;2023-01-28T13:10:15;94066.38;;;1.58;77.79
9676;BME280;4876;42.656;23.292;2023-01-28T13:12:44;94068.97;;;1.69;77.90
9676;BME280;4876;42.656;23.292;2023-01-28T13:15:16;94064.03;;;1.77;78.10
9676;BME280;4876;42.656;23.292;2023-01-28T13:17:54;94067.41;;;1.73;77.69
9676;BME280;4876;42.656;23.292;2023-01-28T13:20:36;94068.44;;;1.67;76.78
9676;BME280;4876;42.656;23.292;2023-01-28T13:23:05;94057.56;;;1.70;76.80
9676;BME280;4876;42.656;23.292;2023-01-28T13:25:33;94064.31;;;1.66;77.11
9676;BME280;4876;42.656;23.292;2023-01-28T13:28:01;94071.31;;;1.75;77.40
9676;BME280;4876;42.656;23.292;2023-01-28T13:30:31;94071.56;;;1.64;77.44
9676;BME280;4876;42.656;23.292;2023-01-28T13:33:00;94080.88;;;1.54;77.56
9676;BME280;4876;42.656;23.292;2023-01-28T13:35:31;94084.00;;;1.67;77.72
9676;BME280;4876;42.656;23.292;2023-01-28T13:37:59;94078.28;;;1.54;78.09
9676;BME280;4876;42.656;23.292;2023-01-28T13:40:32;94085.03;;;1.35;80.06
9676;BME280;4876;42.656;23.292;2023-01-28T13:43:02;94092.81;;;1.45;79.79
9676;BME280;4876;42.656;23.292;2023-01-28T13:45:30;94091.47;;;1.22;79.66